Latest Weather Observations for Noonamah

IDD60801

Issued at 7:31 am CST Friday 23 June 2017 (issued every 30 minutes, with the page automatically refreshed every 10 minutes)

About weather observations | Map of weather stations | Latest weather observations for NT | Other Formats
Station Details ID: 014314 Name: NOONAMAH AIRSTRIP Lat: -12.61 Lon: 131.05 Height: 17.5 m
Data from the previous 72 hours. | See also: Recent months at Noonamah
Date/Time
CST
Temp
°C
App
Temp
°C
Dew
Point
°C
Rel
Hum
%
Delta-T
°C
Wind Press
QNH
hPa
Press
MSL
hPa
Rain since
9am
mm
Dir  Spd
km/h
Gust
km/h
Spd
kts
Gust
kts
23/07:30am 17.4 18.6 15.9 91 0.9 SE 4 6 2 3 1014.0 1013.9 0.0
23/07:00am 16.9 18.6 15.2 90 1.0 CALM 0 0 0 0 1013.7 1013.6 0.0
23/06:30am 17.0 18.7 15.2 89 1.0 CALM 0 0 0 0 1013.5 1013.4 0.0
23/06:00am 17.0 18.6 15.0 88 1.2 CALM 0 0 0 0 1013.2 1013.1 0.0
23/05:30am 17.1 18.8 15.3 89 1.0 CALM 0 0 0 0 1012.9 1012.8 0.0
23/05:00am 17.1 18.8 15.3 89 1.0 CALM 0 0 0 0 1013.0 1012.9 0.0
23/04:30am 17.0 18.6 15.0 88 1.2 CALM 0 0 0 0 1012.9 1012.8 0.0
23/04:00am 17.1 18.8 15.1 88 1.2 CALM 0 0 0 0 1013.0 1012.9 0.0
23/03:30am 17.3 18.9 14.9 86 1.4 CALM 0 0 0 0 1013.2 1013.1 0.0
23/03:00am 17.5 19.2 15.1 86 1.4 CALM 0 0 0 0 1013.3 1013.2 0.0
23/02:30am 17.8 19.3 15.6 87 1.3 SSE 2 4 1 2 1013.5 1013.4 0.0
23/02:00am 18.1 19.9 15.4 84 1.6 CALM 0 0 0 0 1013.8 1013.7 0.0
23/01:30am 18.2 19.9 15.3 83 1.7 CALM 0 0 0 0 1014.1 1014.0 0.0
23/01:00am 18.5 20.2 15.2 81 1.9 CALM 0 0 0 0 1014.3 1014.2 0.0
23/12:30am 19.0 20.8 15.5 80 2.1 CALM 0 0 0 0 1014.4 1014.3 0.0
23/12:00am 19.5 20.5 15.4 77 2.4 ENE 4 6 2 3 1014.4 1014.3 0.0
 
Date/Time
CST
Temp
°C
App
Temp
°C
Dew
Point
°C
Rel
Hum
%
Delta-T
°C
Wind Press
QNH
hPa
Press
MSL
hPa
Rain since
9am
mm
Dir  Spd
km/h
Gust
km/h
Spd
kts
Gust
kts
22/11:30pm 20.2 21.9 15.2 73 2.9 CALM 0 0 0 0 1014.4 1014.3 0.0
22/11:00pm 20.8 22.6 15.4 71 3.2 CALM 0 2 0 1 1014.3 1014.2 0.0
22/10:30pm 22.1 23.7 17.0 73 3.1 SSW 4 7 2 4 1014.6 1014.5 0.0
22/10:00pm 21.0 21.7 15.5 71 3.3 SSW 6 7 3 4 1014.6 1014.5 0.0
22/09:30pm 21.5 22.2 14.6 65 4.1 SW 4 6 2 3 1014.4 1014.3 0.0
22/09:00pm 22.0 23.5 14.6 63 4.4 CALM 0 0 0 0 1014.1 1014.0 0.0
22/08:30pm 23.0 24.5 14.6 59 5.0 CALM 0 0 0 0 1013.8 1013.7 0.0
22/08:00pm 24.1 25.4 14.2 54 5.8 CALM 0 0 0 0 1013.6 1013.5 0.0
22/07:30pm 25.2 26.3 14.6 51 6.3 N 2 6 1 3 1013.2 1013.1 0.0
22/07:00pm 27.0 28.0 15.4 49 7.1 NW 4 6 2 3 1012.8 1012.7 0.0
22/06:30pm 29.0 29.9 12.8 36 9.5 CALM 0 0 0 0 1012.1 1012.0 0.0
22/06:00pm 31.2 30.9 11.6 30 11.4 N 4 6 2 3 1011.7 1011.6 0.0
22/05:30pm 32.1 30.9 9.6 25 12.8 ENE 6 9 3 5 1011.4 1011.3 0.0
22/05:00pm 32.4 30.9 9.2 24 13.1 E 7 13 4 7 1011.2 1011.1 0.0
22/04:30pm 32.7 31.3 8.9 23 13.4 NE 6 9 3 5 1011.1 1011.0 0.0
22/04:00pm 33.2 31.6 8.6 22 13.8 E 7 11 4 6 1011.1 1011.0 0.0
22/03:30pm 33.1 31.8 9.2 23 13.6 ENE 6 13 3 7 1011.1 1011.0 0.0
22/03:00pm 33.1 31.2 9.2 23 13.5 ESE 9 17 5 9 1011.5 1011.4 0.0
22/02:30pm 32.8 31.0 9.6 24 13.2 ESE 9 22 5 12 1011.7 1011.6 0.0
22/02:00pm 32.2 30.3 9.1 24 13.0 E 9 17 5 9 1012.1 1012.0 0.0
22/01:30pm 32.3 29.7 7.9 22 13.5 E 11 19 6 10 1012.5 1012.4 0.0
22/01:00pm 31.7 28.6 8.7 24 12.8 ESE 15 22 8 12 1012.9 1012.8 0.0
22/12:30pm 31.1 28.1 9.3 26 12.3 ESE 15 22 8 12 1013.4 1013.3 0.0
22/12:00pm 30.4 27.5 9.8 28 11.6 ENE 15 22 8 12 1013.8 1013.7 0.0
22/11:30am 30.0 26.7 9.5 28 11.5 E 17 24 9 13 1014.2 1014.1 0.0
22/11:00am 29.9 27.7 10.9 31 10.9 E 13 22 7 12 1014.6 1014.5 0.0
22/10:30am 28.3 26.0 11.8 36 9.5 E 15 22 8 12 1014.9 1014.8 0.0
22/10:00am 27.4 25.6 12.2 39 8.8 E 13 20 7 11 1015.2 1015.1 0.0
22/09:30am 26.6 25.2 12.3 41 8.3 E 11 17 6 9 1015.2 1015.1 0.0
22/09:00am 24.6 24.0 13.5 50 6.5 ESE 9 15 5 8 1015.2 1015.1 0.0
22/08:30am 22.2 23.0 15.8 67 3.8 SE 6 9 3 5 1015.0 1014.9 0.0
22/08:00am 19.5 21.5 16.0 80 2.1 CALM 0 0 0 0 1014.7 1014.6 0.0
22/07:30am 16.8 18.5 15.3 91 0.9 CALM 0 4 0 2 1014.4 1014.3 0.0
22/07:00am 16.5 17.7 14.9 90 0.9 SE 2 4 1 2 1014.2 1014.1 0.0
22/06:30am 16.8 18.5 15.2 90 0.9 CALM 0 0 0 0 1013.8 1013.7 0.0
22/06:00am 17.1 18.9 15.4 90 1.0 CALM 0 0 0 0 1013.5 1013.4 0.0
22/05:30am 17.4 18.9 15.7 90 1.0 SE 2 4 1 2 1013.4 1013.3 0.0
22/05:00am 17.8 19.2 16.3 91 0.9 SE 4 4 2 2 1013.4 1013.3 0.0
22/04:30am 17.9 19.4 16.6 92 0.8 SSE 4 6 2 3 1013.3 1013.2 0.0
22/04:00am 17.7 19.9 16.4 92 0.8 CALM 0 0 0 0 1013.4 1013.3 0.0
22/03:30am 17.8 19.8 16.0 89 1.1 CALM 0 0 0 0 1013.6 1013.5 0.0
22/03:00am 18.2 20.3 16.2 88 1.2 CALM 0 0 0 0 1013.6 1013.5 0.0
22/02:30am 18.3 20.4 16.3 88 1.2 CALM 0 0 0 0 1013.6 1013.5 0.0
22/02:00am 18.6 20.5 16.6 88 1.2 SE 2 2 1 1 1013.8 1013.7 0.0
22/01:30am 18.9 21.3 16.9 88 1.2 CALM 0 0 0 0 1014.1 1014.0 0.0
22/01:00am 19.1 21.3 16.5 85 1.6 CALM 0 0 0 0 1014.2 1014.1 0.0
22/12:30am 19.4 21.6 16.6 84 1.7 CALM 0 0 0 0 1014.2 1014.1 0.0
22/12:00am 19.8 22.0 16.6 82 1.9 CALM 0 0 0 0 1014.3 1014.2 0.0
 
Date/Time
CST
Temp
°C
App
Temp
°C
Dew
Point
°C
Rel
Hum
%
Delta-T
°C
Wind Press
QNH
hPa
Press
MSL
hPa
Rain since
9am
mm
Dir  Spd
km/h
Gust
km/h
Spd
kts
Gust
kts
21/11:30pm 20.4 22.9 17.2 82 2.0 CALM 0 0 0 0 1014.3 1014.2 0.0
21/11:00pm 20.7 23.1 17.1 80 2.2 CALM 0 0 0 0 1014.3 1014.2 0.0
21/10:30pm 21.4 23.7 17.8 80 2.2 SE 2 6 1 3 1014.3 1014.2 0.0
21/10:00pm 22.1 24.6 17.2 74 3.0 CALM 0 0 0 0 1014.1 1014.0 0.0
21/09:30pm 22.6 25.2 17.5 73 3.2 CALM 0 2 0 1 1013.8 1013.7 0.0
21/09:00pm 22.9 25.1 16.4 67 4.0 CALM 0 0 0 0 1013.5 1013.4 0.0
21/08:30pm 23.8 26.0 16.6 64 4.4 CALM 0 2 0 1 1013.2 1013.1 0.0
21/08:00pm 24.8 26.8 16.0 58 5.4 CALM 0 0 0 0 1012.8 1012.7 0.0
21/07:30pm 24.9 25.8 15.2 54 5.8 W 4 6 2 3 1012.5 1012.4 0.0
21/07:00pm 26.9 28.5 15.0 48 7.2 CALM 0 0 0 0 1012.1 1012.0 0.0
21/06:30pm 29.8 31.5 15.1 40 9.0 CALM 0 0 0 0 1011.6 1011.5 0.0
21/06:00pm 31.7 32.0 13.5 33 11.0 ESE 4 6 2 3 1011.1 1011.0 0.0
21/05:30pm 32.4 32.0 13.1 31 11.6 ESE 7 13 4 7 1010.8 1010.7 0.0
21/05:00pm 32.9 31.6 12.5 29 12.2 ESE 11 15 6 8 1010.6 1010.5 0.0
21/04:30pm 33.0 31.9 12.1 28 12.4 ENE 9 17 5 9 1010.5 1010.4 0.0
21/04:00pm 33.0 32.1 11.5 27 12.6 ESE 7 17 4 9 1010.5 1010.4 0.0
21/03:30pm 33.5 31.6 11.9 27 12.8 E 13 17 7 9 1010.6 1010.5 0.0
21/03:00pm 33.1 31.7 12.1 27 12.5 ESE 11 20 6 11 1010.8 1010.7 0.0
21/02:30pm 32.9 31.1 12.0 28 12.4 ESE 13 24 7 13 1011.1 1011.0 0.0
21/02:00pm 33.0 30.8 12.1 28 12.4 ESE 15 24 8 13 1011.5 1011.4 0.0
21/01:30pm 32.6 30.7 11.7 28 12.3 ESE 13 20 7 11 1011.9 1011.8 0.0
21/01:00pm 31.9 29.2 11.7 29 11.8 ESE 17 26 9 14 1012.4 1012.3 0.0
21/12:30pm 32.1 30.0 12.3 29 11.7 ESE 15 22 8 12 1012.9 1012.8 0.0
21/12:00pm 31.4 28.9 12.2 30 11.3 E 17 28 9 15 1013.3 1013.2 0.0
21/11:30am 30.7 28.5 12.1 32 10.9 ESE 15 22 8 12 1013.7 1013.6 0.0
21/11:00am 29.8 26.9 12.3 34 10.3 ESE 19 28 10 15 1014.1 1014.0 0.0
21/10:30am 29.2 27.3 13.0 37 9.6 ESE 15 22 8 12 1014.3 1014.2 0.0
21/10:00am 27.9 26.9 13.4 40 8.6 ESE 11 19 6 10 1014.4 1014.3 0.0
21/09:30am 26.5 26.2 14.3 47 7.3 ESE 9 11 5 6 1014.5 1014.4 0.0
21/09:00am 25.2 25.6 15.2 54 6.0 ESE 7 11 4 6 1014.4 1014.3 0.0
21/08:30am 24.2 24.7 15.1 56 5.4 SE 6 9 3 5 1014.2 1014.1 0.0
21/08:00am 23.4 24.1 15.5 61 4.7 SE 6 11 3 6 1013.9 1013.8 0.0
21/07:30am 22.1 23.6 16.6 71 3.3 SE 4 6 2 3 1013.5 1013.4 0.0
21/07:00am 21.0 23.8 18.0 83 1.9 CALM 0 0 0 0 1013.3 1013.2 0.0
21/06:30am 20.4 23.3 18.3 88 1.3 CALM 0 0 0 0 1013.1 1013.0 0.0
21/06:00am 19.9 22.8 18.2 90 1.1 CALM 0 0 0 0 1012.9 1012.8 0.0
21/05:30am 19.4 22.0 17.5 89 1.2 CALM 0 0 0 0 1012.7 1012.6 0.0
21/05:00am 19.6 22.2 17.4 87 1.3 CALM 0 0 0 0 1012.6 1012.5 0.0
21/04:30am 19.7 22.4 17.8 89 1.2 CALM 0 0 0 0 1012.5 1012.4 0.0
21/04:00am 19.7 22.5 18.0 90 1.0 CALM 0 0 0 0 1012.7 1012.6 0.0
21/03:30am 19.4 22.0 17.5 89 1.2 CALM 0 0 0 0 1012.8 1012.7 0.0
21/03:00am 19.2 21.6 17.0 87 1.3 CALM 0 0 0 0 1012.8 1012.7 0.0
21/02:30am 19.5 22.0 17.3 87 1.3 CALM 0 0 0 0 1013.0 1012.9 0.0
21/02:00am 19.8 22.5 17.8 88 1.2 CALM 0 0 0 0 1013.2 1013.1 0.0
21/01:30am 20.3 22.8 17.3 83 1.8 CALM 0 0 0 0 1013.4 1013.3 0.0
21/01:00am 20.8 23.4 17.4 81 2.1 CALM 0 0 0 0 1013.3 1013.2 0.0
21/12:30am 21.4 24.1 17.8 80 2.2 CALM 0 0 0 0 1013.4 1013.3 0.0
21/12:00am 22.3 25.0 18.7 80 2.3 SSW 2 2 1 1 1013.5 1013.4 0.0
 
Date/Time
CST
Temp
°C
App
Temp
°C
Dew
Point
°C
Rel
Hum
%
Delta-T
°C
Wind Press
QNH
hPa
Press
MSL
hPa
Rain since
9am
mm
Dir  Spd
km/h
Gust
km/h
Spd
kts
Gust
kts
20/11:30pm 23.2 26.2 18.5 75 3.0 CALM 0 0 0 0 1013.6 1013.5 0.0
20/11:00pm 23.6 26.0 18.7 74 3.1 SW 4 4 2 2 1013.7 1013.6 0.0
20/10:30pm 24.2 26.5 18.6 71 3.5 SW 4 7 2 4 1013.7 1013.6 0.0
20/10:00pm 24.4 25.8 17.9 67 4.1 SW 7 9 4 5 1013.6 1013.5 0.0
20/09:30pm 23.8 25.4 17.8 69 3.7 WSW 6 13 3 7 1013.3 1013.2 0.0
20/09:00pm 23.8 25.9 17.3 67 4.0 E 2 6 1 3 1012.8 1012.7 0.0
20/08:30pm 24.8 26.2 17.3 63 4.7 SE 6 6 3 3 1012.4 1012.3 0.0
20/08:00pm 25.9 28.2 16.7 57 5.7 CALM 0 0 0 0 1012.3 1012.2 0.0
20/07:30pm 27.2 29.6 17.1 54 6.3 CALM 0 0 0 0 1012.0 1011.9 0.0
20/07:00pm 28.6 30.7 17.2 50 7.2 NE 2 4 1 2 1011.7 1011.6 0.0
20/06:30pm 29.0 30.7 17.2 49 7.4 NE 4 7 2 4 1011.5 1011.4 0.0
20/06:00pm 30.3 31.0 17.0 44 8.4 NNE 9 13 5 7 1011.1 1011.0 0.0
20/05:30pm 31.2 31.8 16.8 42 9.1 NNE 9 15 5 8 1010.8 1010.7 0.0
20/05:00pm 32.3 30.7 14.0 33 11.1 ESE 15 20 8 11 1010.4 1010.3 0.0
20/04:30pm 32.7 31.2 14.3 32 11.3 ENE 15 22 8 12 1010.1 1010.0 0.0
20/04:00pm 33.5 32.1 14.5 31 11.7 E 15 24 8 13 1009.9 1009.8 0.0
20/03:30pm 33.8 32.2 13.8 30 12.2 E 15 24 8 13 1010.0 1009.9 0.0
20/03:00pm 33.1 30.9 13.2 30 12.0 E 17 26 9 14 1010.2 1010.1 0.0
20/02:30pm 33.4 31.8 14.0 31 11.9 ENE 15 22 8 12 1010.5 1010.4 0.0
20/02:00pm 33.1 31.4 13.7 31 11.8 ESE 15 24 8 13 1011.0 1010.9 0.0
20/01:30pm 33.7 31.3 13.7 30 12.2 ENE 19 30 10 16 1011.3 1011.2 0.0
20/01:00pm 32.9 31.3 14.0 32 11.5 NE 15 26 8 14 1011.6 1011.5 0.0
20/12:30pm 32.9 31.3 14.0 32 11.5 E 15 26 8 14 1012.1 1012.0 0.0
20/12:00pm 31.8 29.7 13.5 32 11.0 E 17 26 9 14 1012.5 1012.4 0.0
20/11:30am 31.8 29.6 14.4 34 10.6 E 19 35 10 19 1012.8 1012.7 0.0
20/11:00am 30.4 28.5 14.1 37 9.9 ESE 17 24 9 13 1013.2 1013.1 0.0
20/10:30am 29.7 28.9 15.0 40 9.0 E 13 19 7 10 1013.4 1013.3 0.0
20/10:00am 28.0 28.0 15.3 46 7.7 ESE 9 15 5 8 1013.5 1013.4 0.0
20/09:30am 26.2 26.1 15.0 50 6.8 ESE 9 13 5 7 1013.8 1013.7 0.0
20/09:00am 24.5 24.9 15.4 57 5.5 SE 7 9 4 5 1013.8 1013.7 0.0
20/08:30am 22.0 23.7 16.1 69 3.6 SE 2 6 1 3 1013.5 1013.4 0.0
20/08:00am 18.6 20.8 16.4 87 1.3 CALM 0 0 0 0 1013.3 1013.2 0.0

Other Formats:

Comma delimited format used in spreadsheet applications
http://www.bom.gov.au/fwo/IDD60801/IDD60801.94105.axf

JavaScript Object Notation format (JSON) in row-major order
http://www.bom.gov.au/fwo/IDD60801/IDD60801.94105.json